createdAt,value
2023-09-09T00:00:52.358Z,4.35
2023-09-09T00:03:21.395Z,5.10
2023-09-09T00:05:50.515Z,5.10
2023-09-09T00:08:20.025Z,4.65
2023-09-09T00:10:48.947Z,4.38
2023-09-09T00:13:17.851Z,4.40
2023-09-09T00:15:46.830Z,5.00
2023-09-09T00:18:16.230Z,4.93
2023-09-09T00:20:45.299Z,4.72
2023-09-09T00:23:14.603Z,4.63
2023-09-09T00:25:43.913Z,4.63
2023-09-09T00:28:12.922Z,5.20
2023-09-09T00:30:41.980Z,4.60
2023-09-09T00:33:11.147Z,5.18
2023-09-09T00:35:40.177Z,5.03
2023-09-09T00:38:08.941Z,4.80
2023-09-09T00:40:38.299Z,4.50
2023-09-09T00:43:07.377Z,4.88
2023-09-09T00:45:36.353Z,4.75
2023-09-09T00:48:05.515Z,4.65
2023-09-09T00:50:34.112Z,4.60
2023-09-09T00:53:02.571Z,4.30
2023-09-09T00:55:31.585Z,5.10
2023-09-09T00:58:00.783Z,4.70
2023-09-09T01:00:29.643Z,4.68
2023-09-09T01:02:58.730Z,4.95
2023-09-09T01:05:28.198Z,4.72
2023-09-09T01:07:57.337Z,4.63
2023-09-09T01:10:26.390Z,4.82
2023-09-09T01:12:54.956Z,4.53
2023-09-09T01:15:23.517Z,4.93
2023-09-09T01:17:52.078Z,5.40
2023-09-09T01:20:20.758Z,4.55
2023-09-09T01:22:49.028Z,5.05
2023-09-09T01:25:17.767Z,5.07
2023-09-09T01:27:47.212Z,4.72
2023-09-09T01:30:16.680Z,4.97
2023-09-09T01:32:45.253Z,4.72
2023-09-09T01:35:13.787Z,4.53
2023-09-09T01:37:42.254Z,4.90
2023-09-09T01:40:10.772Z,4.60
2023-09-09T01:42:39.877Z,4.90
2023-09-09T01:45:10.702Z,5.32
2023-09-09T01:47:39.913Z,4.95
2023-09-09T01:50:08.249Z,4.60
2023-09-09T01:52:36.202Z,4.80
2023-09-09T01:55:05.151Z,4.45
2023-09-09T01:57:34.853Z,4.90
2023-09-09T02:00:04.023Z,4.57
2023-09-09T02:02:40.800Z,4.70
2023-09-09T02:05:11.109Z,4.90
2023-09-09T02:07:39.543Z,4.75
2023-09-09T02:10:09.516Z,4.68
2023-09-09T02:12:39.456Z,4.60
2023-09-09T02:15:07.214Z,4.68
2023-09-09T02:17:36.485Z,5.00
2023-09-09T02:20:06.627Z,4.35
2023-09-09T02:22:35.257Z,4.65
2023-09-09T02:25:04.629Z,4.93
2023-09-09T02:27:32.929Z,4.85
2023-09-09T02:30:01.795Z,4.82
2023-09-09T02:32:30.799Z,4.70
2023-09-09T02:34:59.318Z,4.57
2023-09-09T02:37:27.867Z,4.80
2023-09-09T02:39:56.795Z,4.63
2023-09-09T02:42:26.234Z,4.63
2023-09-09T02:44:55.302Z,4.57
2023-09-09T02:47:24.534Z,5.05
2023-09-09T02:49:53.012Z,4.80
2023-09-09T02:52:23.166Z,4.65
2023-09-09T02:54:51.847Z,4.65
2023-09-09T02:57:21.056Z,4.65
2023-09-09T02:59:50.341Z,4.63
2023-09-09T03:02:18.884Z,4.68
2023-09-09T03:04:48.013Z,4.95
2023-09-09T03:07:16.526Z,5.43
2023-09-09T03:09:45.186Z,4.80
2023-09-09T03:12:14.450Z,4.63
2023-09-09T03:14:43.462Z,4.70
2023-09-09T03:17:12.429Z,4.70
2023-09-09T03:19:41.131Z,4.63
2023-09-09T03:22:09.538Z,4.63
2023-09-09T03:24:39.447Z,4.55
2023-09-09T03:27:08.849Z,4.60
2023-09-09T03:29:37.353Z,4.88
2023-09-09T03:32:05.899Z,5.07
2023-09-09T03:34:34.493Z,4.78
2023-09-09T03:37:03.094Z,5.03
2023-09-09T03:39:32.718Z,4.70
2023-09-09T03:42:01.280Z,4.65
2023-09-09T03:44:29.760Z,4.88
2023-09-09T03:46:58.783Z,4.50
2023-09-09T03:49:27.828Z,5.00
2023-09-09T03:51:56.891Z,5.05
2023-09-09T03:54:25.231Z,4.70
2023-09-09T03:56:53.242Z,5.10
2023-09-09T03:59:22.120Z,5.00
2023-09-09T04:01:51.262Z,4.78
2023-09-09T04:04:20.206Z,4.85
2023-09-09T04:06:49.734Z,4.72
2023-09-09T04:09:19.145Z,5.13
2023-09-09T04:11:47.905Z,5.00
2023-09-09T04:14:16.779Z,5.03
2023-09-09T04:16:45.446Z,5.00
2023-09-09T04:19:14.646Z,5.00
2023-09-09T04:21:44.814Z,4.80
2023-09-09T04:24:13.858Z,5.07
2023-09-09T04:26:42.374Z,5.60
2023-09-09T04:29:11.261Z,5.13
2023-09-09T04:31:40.381Z,5.20
2023-09-09T04:34:08.976Z,4.82
2023-09-09T04:36:37.664Z,4.68
2023-09-09T04:39:06.956Z,5.20
2023-09-09T04:41:36.006Z,5.40
2023-09-09T04:44:04.894Z,4.90
2023-09-09T04:46:34.037Z,4.95
2023-09-09T04:49:03.036Z,5.25
2023-09-09T04:51:31.642Z,4.78
2023-09-09T04:54:03.168Z,5.07
2023-09-09T04:56:33.726Z,5.45
2023-09-09T04:59:02.845Z,4.88
2023-09-09T05:01:32.097Z,4.95
2023-09-09T05:04:01.156Z,4.68
2023-09-09T05:06:30.070Z,4.95
2023-09-09T05:08:58.840Z,4.90
2023-09-09T05:11:26.773Z,4.97
2023-09-09T05:13:55.959Z,4.82
2023-09-09T05:16:25.110Z,4.68
2023-09-09T05:18:53.878Z,5.28
2023-09-09T05:21:22.817Z,5.28
2023-09-09T05:23:51.891Z,4.45
2023-09-09T05:26:20.526Z,4.70
2023-09-09T05:28:49.634Z,4.68
2023-09-09T05:31:18.778Z,4.95
2023-09-09T05:33:47.913Z,4.78
2023-09-09T05:36:18.156Z,4.75
2023-09-09T05:38:46.831Z,4.53
2023-09-09T05:41:15.296Z,4.85
2023-09-09T05:43:43.863Z,4.22
2023-09-09T05:46:13.116Z,4.90
2023-09-09T05:48:42.108Z,4.97
2023-09-09T05:51:11.618Z,4.82
2023-09-09T05:53:40.797Z,5.13
2023-09-09T05:56:09.642Z,4.80
2023-09-09T05:58:40.043Z,5.00
2023-09-09T06:01:09.883Z,4.50
2023-09-09T06:03:38.875Z,4.72
2023-09-09T06:06:08.263Z,4.65
2023-09-09T06:08:37.123Z,4.88
2023-09-09T06:11:05.650Z,4.78
2023-09-09T06:13:35.372Z,4.57
2023-09-09T06:16:04.982Z,4.80
2023-09-09T06:18:34.158Z,4.63
2023-09-09T06:21:02.718Z,4.70
2023-09-09T06:23:32.244Z,4.30
2023-09-09T06:26:01.447Z,4.53
2023-09-09T06:28:30.888Z,12.85
2023-09-09T06:30:59.769Z,7.82
2023-09-09T06:33:28.833Z,6.43
2023-09-09T06:35:57.953Z,6.00
2023-09-09T06:38:27.008Z,5.45
2023-09-09T06:40:55.995Z,5.10
2023-09-09T06:43:25.773Z,4.72
2023-09-09T06:45:55.168Z,4.80
2023-09-09T06:48:24.746Z,5.13
2023-09-09T06:50:53.766Z,5.50
2023-09-09T06:53:22.831Z,5.60
2023-09-09T06:55:51.440Z,4.82
2023-09-09T06:58:20.102Z,5.10
2023-09-09T07:00:48.751Z,5.10
2023-09-09T07:03:17.160Z,5.45
2023-09-09T07:05:46.412Z,4.80
2023-09-09T07:08:15.537Z,4.55
2023-09-09T07:10:46.007Z,4.82
2023-09-09T07:13:16.006Z,4.90
2023-09-09T07:15:45.465Z,4.90
2023-09-09T07:18:14.750Z,5.22
2023-09-09T07:20:44.257Z,5.35
2023-09-09T07:23:13.194Z,5.28
2023-09-09T07:25:43.491Z,5.10
2023-09-09T07:28:12.131Z,5.43
2023-09-09T07:30:41.483Z,5.68
2023-09-09T07:33:10.991Z,6.47
2023-09-09T07:35:40.461Z,5.75
2023-09-09T07:38:09.452Z,5.28
2023-09-09T07:40:38.901Z,5.68
2023-09-09T07:43:08.470Z,5.47
2023-09-09T07:45:38.192Z,5.10
2023-09-09T07:48:07.759Z,5.28
2023-09-09T07:50:37.208Z,4.85
2023-09-09T07:53:06.489Z,5.05
2023-09-09T07:55:36.026Z,5.70
2023-09-09T07:58:05.786Z,5.40
2023-09-09T08:00:35.619Z,5.43
2023-09-09T08:03:05.423Z,5.55
2023-09-09T08:05:34.969Z,5.10
2023-09-09T08:08:04.509Z,6.32
2023-09-09T08:10:33.618Z,5.45
2023-09-09T08:13:02.583Z,5.60
2023-09-09T08:15:40.194Z,5.78
2023-09-09T08:18:10.648Z,5.80
2023-09-09T08:20:40.154Z,5.95
2023-09-09T08:23:09.126Z,5.80
2023-09-09T08:25:38.652Z,5.82
2023-09-09T08:28:08.016Z,6.20
2023-09-09T08:30:37.044Z,6.90
2023-09-09T08:33:06.296Z,6.65
2023-09-09T08:35:35.318Z,6.55
2023-09-09T08:38:04.614Z,6.72
2023-09-09T08:40:32.713Z,6.20
2023-09-09T08:43:01.448Z,6.68
2023-09-09T08:45:30.535Z,6.22
2023-09-09T08:48:00.128Z,5.57
2023-09-09T08:50:29.108Z,6.10
2023-09-09T08:52:58.154Z,6.63
2023-09-09T08:55:27.689Z,6.32
2023-09-09T08:57:56.804Z,7.32
2023-09-09T09:00:25.901Z,6.68
2023-09-09T09:02:54.860Z,6.20
2023-09-09T09:05:23.973Z,5.93
2023-09-09T09:07:53.428Z,5.70
2023-09-09T09:10:22.749Z,5.70
2023-09-09T09:12:51.614Z,5.88
2023-09-09T09:15:21.107Z,5.32
2023-09-09T09:17:50.761Z,5.20
2023-09-09T09:20:21.162Z,5.68
2023-09-09T09:22:51.181Z,5.68
2023-09-09T09:25:20.721Z,5.25
2023-09-09T09:27:49.551Z,5.50
2023-09-09T09:30:18.463Z,5.72
2023-09-09T09:32:48.088Z,5.68
2023-09-09T09:35:17.669Z,5.85
2023-09-09T09:37:46.717Z,5.45
2023-09-09T09:40:15.800Z,4.93
2023-09-09T09:42:44.774Z,5.60
2023-09-09T09:45:14.166Z,4.97
2023-09-09T09:47:43.159Z,4.68
2023-09-09T09:50:12.334Z,4.70
2023-09-09T09:52:42.248Z,5.00
2023-09-09T09:55:11.876Z,4.90
2023-09-09T09:57:41.280Z,4.97
2023-09-09T10:00:10.558Z,4.90
2023-09-09T10:02:42.866Z,4.82
2023-09-09T10:05:12.458Z,4.50
2023-09-09T10:07:41.516Z,4.93
2023-09-09T10:10:10.640Z,4.47
2023-09-09T10:12:47.983Z,4.90
2023-09-09T10:15:18.333Z,4.60
2023-09-09T10:17:47.870Z,4.05
2023-09-09T10:20:17.379Z,4.50
2023-09-09T10:22:46.512Z,4.72
2023-09-09T10:25:16.084Z,4.45
2023-09-09T10:27:45.672Z,4.50
2023-09-09T10:30:14.591Z,4.40
2023-09-09T10:32:44.767Z,4.32
2023-09-09T10:35:17.637Z,3.95
2023-09-09T10:37:47.921Z,3.88
2023-09-09T10:40:17.624Z,4.40
2023-09-09T10:42:46.744Z,4.30
2023-09-09T10:45:16.479Z,4.47
2023-09-09T10:47:45.592Z,3.97
2023-09-09T10:50:15.124Z,4.13
2023-09-09T10:52:44.728Z,4.30
2023-09-09T10:55:14.562Z,4.45
2023-09-09T10:57:43.724Z,4.30
2023-09-09T11:00:12.848Z,4.07
2023-09-09T11:02:42.061Z,4.30
2023-09-09T11:05:10.788Z,4.05
2023-09-09T11:07:39.093Z,4.00
2023-09-09T11:10:08.522Z,4.53
2023-09-09T11:12:37.893Z,4.20
2023-09-09T11:15:06.821Z,4.10
2023-09-09T11:17:37.054Z,4.07
2023-09-09T11:20:08.226Z,4.60
2023-09-09T11:22:37.766Z,4.10
2023-09-09T11:25:06.904Z,4.75
2023-09-09T11:27:35.954Z,5.13
2023-09-09T11:30:05.766Z,4.28
2023-09-09T11:32:35.617Z,4.45
2023-09-09T11:35:04.902Z,4.53
2023-09-09T11:37:33.121Z,4.78
2023-09-09T11:40:02.095Z,4.15
2023-09-09T11:42:31.479Z,4.32
2023-09-09T11:45:01.113Z,3.97
2023-09-09T11:47:30.843Z,4.18
2023-09-09T11:50:00.309Z,4.50
2023-09-09T11:52:29.824Z,4.22
2023-09-09T11:54:59.091Z,4.13
2023-09-09T11:57:28.177Z,4.38
2023-09-09T11:59:58.153Z,4.60
2023-09-09T12:02:28.004Z,4.00
2023-09-09T12:04:57.462Z,4.15
2023-09-09T12:07:26.812Z,4.03
2023-09-09T12:09:55.116Z,4.65
2023-09-09T12:12:24.511Z,4.18
2023-09-09T12:14:53.585Z,4.35
2023-09-09T12:17:22.618Z,3.85
2023-09-09T12:19:51.673Z,4.10
2023-09-09T12:22:20.486Z,4.18
2023-09-09T12:24:49.541Z,4.50
2023-09-09T12:27:18.635Z,4.03
2023-09-09T12:29:47.251Z,4.07
2023-09-09T12:32:16.239Z,4.18
2023-09-09T12:34:45.069Z,4.10
2023-09-09T12:37:13.989Z,4.10
2023-09-09T12:39:43.541Z,4.05
2023-09-09T12:42:13.009Z,4.68
2023-09-09T12:44:42.527Z,3.85
2023-09-09T12:47:11.977Z,4.07
2023-09-09T12:49:40.980Z,4.25
2023-09-09T12:52:11.532Z,4.50
2023-09-09T12:54:40.407Z,3.95
2023-09-09T12:57:10.373Z,4.22
2023-09-09T12:59:39.762Z,4.50
2023-09-09T13:02:08.875Z,4.30
2023-09-09T13:04:37.642Z,4.18
2023-09-09T13:07:05.895Z,4.20
2023-09-09T13:09:35.536Z,4.38
2023-09-09T13:12:04.586Z,4.32
2023-09-09T13:14:34.052Z,4.30
2023-09-09T13:17:03.417Z,4.18
2023-09-09T13:19:35.257Z,4.13
2023-09-09T13:22:06.063Z,4.68
2023-09-09T13:24:35.289Z,4.28
2023-09-09T13:27:04.367Z,4.07
2023-09-09T13:29:34.353Z,3.92
2023-09-09T13:32:03.382Z,4.07
2023-09-09T13:34:32.288Z,4.25
2023-09-09T13:37:01.097Z,4.00
2023-09-09T13:39:30.116Z,4.28
2023-09-09T13:41:59.533Z,4.18
2023-09-09T13:44:28.493Z,3.75
2023-09-09T13:46:58.085Z,4.65
2023-09-09T13:49:27.666Z,4.30
2023-09-09T13:51:57.281Z,4.10
2023-09-09T13:54:26.851Z,4.25
2023-09-09T13:56:55.921Z,4.10
2023-09-09T13:59:25.360Z,4.47
2023-09-09T14:01:54.243Z,4.85
2023-09-09T14:04:23.593Z,4.43
2023-09-09T14:06:53.051Z,4.28
2023-09-09T14:09:22.047Z,3.88
2023-09-09T14:11:51.001Z,3.90
2023-09-09T14:14:21.657Z,4.10
2023-09-09T14:16:52.135Z,4.40
2023-09-09T14:19:21.133Z,3.90
2023-09-09T14:21:50.377Z,3.97
2023-09-09T14:24:19.924Z,4.28
2023-09-09T14:26:49.405Z,4.78
2023-09-09T14:29:19.064Z,4.40
2023-09-09T14:31:48.002Z,4.13
2023-09-09T14:34:16.767Z,4.50
2023-09-09T14:36:46.089Z,4.00
2023-09-09T14:39:15.411Z,4.55
2023-09-09T14:41:44.837Z,4.60
2023-09-09T14:44:14.396Z,4.47
2023-09-09T14:46:43.483Z,4.53
2023-09-09T14:49:13.327Z,4.32
2023-09-09T14:51:42.816Z,4.40
2023-09-09T14:54:11.725Z,4.65
2023-09-09T14:56:40.776Z,4.43
2023-09-09T14:59:10.263Z,4.32
2023-09-09T15:01:40.867Z,4.40
2023-09-09T15:04:11.241Z,4.38
2023-09-09T15:06:40.210Z,4.30
2023-09-09T15:09:09.050Z,4.55
2023-09-09T15:11:37.688Z,4.75
2023-09-09T15:14:06.557Z,4.70
2023-09-09T15:16:36.431Z,4.32
2023-09-09T15:19:06.061Z,4.38
2023-09-09T15:21:35.708Z,4.32
2023-09-09T15:24:08.679Z,4.70
2023-09-09T15:26:37.641Z,4.45
2023-09-09T15:29:07.063Z,4.18
2023-09-09T15:31:36.133Z,4.47
2023-09-09T15:34:05.712Z,4.68
2023-09-09T15:36:35.374Z,4.47
2023-09-09T15:39:04.575Z,4.40
2023-09-09T15:41:32.841Z,3.90
2023-09-09T15:44:02.333Z,4.47
2023-09-09T15:46:31.889Z,4.85
2023-09-09T15:49:01.572Z,4.30
2023-09-09T15:51:30.608Z,4.68
2023-09-09T15:53:59.935Z,5.05
2023-09-09T15:56:29.550Z,4.82
2023-09-09T15:58:59.028Z,4.25
2023-09-09T16:01:28.024Z,4.53
2023-09-09T16:03:57.569Z,4.97
2023-09-09T16:06:27.217Z,4.57
2023-09-09T16:08:57.035Z,4.72
2023-09-09T16:11:26.159Z,5.05
2023-09-09T16:13:55.130Z,5.38
2023-09-09T16:16:24.653Z,4.47
2023-09-09T16:18:53.667Z,4.80
2023-09-09T16:21:23.156Z,4.95
2023-09-09T16:23:52.791Z,4.57
2023-09-09T16:26:21.924Z,4.63
2023-09-09T16:28:50.961Z,5.03
2023-09-09T16:31:20.236Z,5.22
2023-09-09T16:33:49.809Z,5.18
2023-09-09T16:36:19.087Z,4.63
2023-09-09T16:38:47.914Z,4.85
2023-09-09T16:41:16.772Z,4.82
2023-09-09T16:43:45.822Z,4.97
2023-09-09T16:46:15.063Z,4.90
2023-09-09T16:48:44.018Z,4.53
2023-09-09T16:51:13.836Z,5.35
2023-09-09T16:53:43.302Z,4.90
2023-09-09T16:56:13.014Z,4.70
2023-09-09T16:58:42.890Z,4.57
2023-09-09T17:01:11.890Z,4.97
2023-09-09T17:03:40.854Z,4.15
2023-09-09T17:06:09.800Z,4.53
2023-09-09T17:08:38.825Z,5.55
2023-09-09T17:11:08.404Z,4.93
2023-09-09T17:13:38.116Z,5.07
2023-09-09T17:16:07.782Z,4.57
2023-09-09T17:18:36.694Z,4.72
2023-09-09T17:21:06.525Z,5.32
2023-09-09T17:23:36.290Z,5.10
2023-09-09T17:26:07.978Z,5.53
2023-09-09T17:28:38.553Z,4.68
2023-09-09T17:31:07.957Z,5.40
2023-09-09T17:33:37.378Z,4.95
2023-09-09T17:36:06.741Z,4.65
2023-09-09T17:38:35.990Z,5.13
2023-09-09T17:41:05.487Z,4.90
2023-09-09T17:43:34.502Z,5.20
2023-09-09T17:46:03.866Z,4.93
2023-09-09T17:48:32.761Z,4.53
2023-09-09T17:51:01.944Z,4.53
2023-09-09T17:53:30.271Z,4.75
2023-09-09T17:55:59.950Z,4.95
2023-09-09T17:58:29.750Z,5.20
2023-09-09T18:00:59.293Z,4.72
2023-09-09T18:03:28.757Z,4.65
2023-09-09T18:05:59.806Z,4.70
2023-09-09T18:08:31.537Z,4.80
2023-09-09T18:11:01.225Z,5.03
2023-09-09T18:13:30.402Z,5.25
2023-09-09T18:16:00.082Z,4.80
2023-09-09T18:18:29.722Z,4.95
2023-09-09T18:20:59.177Z,4.97
2023-09-09T18:23:28.732Z,5.13
2023-09-09T18:25:57.748Z,4.97
2023-09-09T18:28:27.166Z,5.03
2023-09-09T18:30:56.386Z,4.68
2023-09-09T18:33:25.176Z,5.00
2023-09-09T18:35:54.904Z,5.15
2023-09-09T18:38:23.904Z,4.82
2023-09-09T18:40:53.371Z,5.20
2023-09-09T18:43:23.288Z,5.43
2023-09-09T18:45:52.742Z,5.13
2023-09-09T18:48:22.440Z,5.00
2023-09-09T18:50:51.912Z,5.10
2023-09-09T18:53:21.347Z,4.70
2023-09-09T18:55:51.075Z,5.18
2023-09-09T18:58:20.326Z,5.05
2023-09-09T19:00:49.365Z,4.90
2023-09-09T19:03:20.182Z,5.00
2023-09-09T19:05:51.516Z,5.05
2023-09-09T19:08:19.509Z,4.95
2023-09-09T19:10:48.511Z,5.13
2023-09-09T19:13:17.949Z,4.57
2023-09-09T19:15:46.480Z,4.68
2023-09-09T19:18:16.045Z,4.60
2023-09-09T19:20:45.731Z,5.00
2023-09-09T19:23:14.770Z,5.05
2023-09-09T19:25:43.724Z,4.70
2023-09-09T19:28:12.835Z,5.15
2023-09-09T19:30:42.233Z,4.72
2023-09-09T19:33:11.191Z,5.25
2023-09-09T19:35:42.220Z,4.97
2023-09-09T19:38:14.072Z,4.82
2023-09-09T19:40:43.931Z,5.40
2023-09-09T19:43:13.758Z,5.10
2023-09-09T19:45:45.057Z,4.78
2023-09-09T19:48:13.099Z,4.70
2023-09-09T19:50:43.346Z,4.90
2023-09-09T19:53:13.221Z,4.70
2023-09-09T19:55:42.574Z,4.85
2023-09-09T19:58:12.034Z,4.90
2023-09-09T20:00:41.012Z,4.90
2023-09-09T20:03:10.001Z,5.20
2023-09-09T20:05:39.353Z,4.70
2023-09-09T20:08:08.910Z,4.85
2023-09-09T20:10:38.294Z,4.53
2023-09-09T20:13:07.616Z,4.53
2023-09-09T20:15:36.974Z,4.55
2023-09-09T20:18:06.273Z,4.63
2023-09-09T20:20:35.258Z,4.70
2023-09-09T20:23:04.367Z,4.70
2023-09-09T20:25:33.697Z,4.47
2023-09-09T20:28:03.152Z,5.05
2023-09-09T20:30:32.178Z,4.97
2023-09-09T20:33:00.970Z,5.05
2023-09-09T20:35:34.693Z,4.78
2023-09-09T20:38:04.042Z,4.97
2023-09-09T20:40:32.846Z,4.53
2023-09-09T20:43:01.838Z,4.70
2023-09-09T20:45:31.298Z,4.70
2023-09-09T20:48:00.055Z,4.93
2023-09-09T20:50:28.145Z,4.57
2023-09-09T20:52:56.708Z,4.50
2023-09-09T20:55:26.439Z,4.70
2023-09-09T20:57:55.447Z,4.65
2023-09-09T21:00:25.099Z,4.95
2023-09-09T21:02:54.666Z,4.93
2023-09-09T21:05:24.191Z,4.97
2023-09-09T21:07:53.700Z,4.85
2023-09-09T21:10:22.605Z,4.80
2023-09-09T21:12:52.197Z,4.70
2023-09-09T21:15:20.857Z,4.70
2023-09-09T21:17:49.812Z,4.90
2023-09-09T21:20:18.870Z,4.53
2023-09-09T21:22:48.372Z,4.43
2023-09-09T21:25:17.923Z,4.53
2023-09-09T21:27:46.963Z,4.50
2023-09-09T21:30:15.632Z,4.82
2023-09-09T21:32:44.585Z,4.60
2023-09-09T21:35:14.145Z,4.53
2023-09-09T21:37:43.530Z,4.70
2023-09-09T21:40:12.780Z,4.95
2023-09-09T21:42:41.292Z,4.47
2023-09-09T21:45:10.771Z,5.03
2023-09-09T21:47:40.161Z,4.50
2023-09-09T21:50:09.629Z,4.20
2023-09-09T21:52:39.121Z,4.65
2023-09-09T21:55:08.398Z,4.35
2023-09-09T21:57:37.514Z,4.82
2023-09-09T22:00:05.987Z,4.60
2023-09-09T22:02:35.162Z,4.55
2023-09-09T22:05:04.825Z,4.68
2023-09-09T22:07:34.048Z,4.82
2023-09-09T22:10:03.471Z,4.45
2023-09-09T22:12:33.147Z,4.32
2023-09-09T22:15:02.569Z,4.75
2023-09-09T22:17:32.156Z,4.43
2023-09-09T22:20:01.397Z,4.20
2023-09-09T22:22:30.305Z,4.47
2023-09-09T22:24:59.795Z,3.97
2023-09-09T22:27:28.823Z,4.47
2023-09-09T22:29:57.698Z,4.82
2023-09-09T22:32:27.318Z,4.70
2023-09-09T22:34:56.364Z,4.63
2023-09-09T22:37:25.383Z,4.20
2023-09-09T22:39:54.489Z,4.05
2023-09-09T22:42:23.894Z,5.00
2023-09-09T22:44:53.377Z,4.80
2023-09-09T22:47:22.839Z,4.93
2023-09-09T22:49:51.966Z,4.50
2023-09-09T22:52:21.071Z,4.47
2023-09-09T22:54:50.284Z,4.55
2023-09-09T22:57:19.966Z,3.97
2023-09-09T22:59:49.459Z,4.65
2023-09-09T23:02:19.103Z,4.30
2023-09-09T23:04:48.849Z,4.32
2023-09-09T23:07:18.466Z,4.57
2023-09-09T23:09:48.125Z,4.70
2023-09-09T23:12:17.309Z,4.20
2023-09-09T23:14:46.418Z,4.75
2023-09-09T23:17:19.971Z,5.00
2023-09-09T23:19:49.451Z,4.38
2023-09-09T23:22:18.915Z,4.80
2023-09-09T23:24:47.739Z,4.53
2023-09-09T23:27:16.388Z,4.07
2023-09-09T23:29:44.663Z,4.05
2023-09-09T23:32:14.067Z,4.30
2023-09-09T23:34:43.643Z,4.15
2023-09-09T23:37:13.298Z,4.78
2023-09-09T23:39:48.321Z,4.47
2023-09-09T23:42:17.879Z,4.22
2023-09-09T23:44:47.294Z,4.03
2023-09-09T23:47:16.170Z,4.40
2023-09-09T23:49:45.487Z,4.20
2023-09-09T23:52:15.057Z,4.68
2023-09-09T23:54:44.145Z,4.32
2023-09-09T23:57:13.617Z,4.07
2023-09-09T23:59:43.270Z,4.50
